HITRA, Noorwegen

2:38 PM CET op 25 februari 2017 (GMT +0100)
Snillfjord | | Change Station

Hoogte 0 ft 63.47 °N, 9.18 °E | Updated 4 minutes ago

Merendeels bewolkt
Merendeels bewolkt
34.3 °F
Voelt als 31 °F
N
3.7
Wind Variabel Wind van ONO
Gusts 9.3 mijl/u

Vandaag
Hoog -- | Laag -- °F
--% Kans op neerslag
Gisteren
Hoog -- | Laag -- °F
Precip. -- inches
Druk 29.30 inches
Zicht 6.2 mijlen
Wolken Licht bewolkt 6500 ft
Merendeels bewolkt 8400 ft
Gevoelstemperatuur 31 °F
Dauwpunt 19 °F
Vochtigheid 54%
Neerslag Niet beschikbaar.
Dikte sneeuw Niet beschikbaar.
7:42 AM 5:31 PM
Afnemende halvemaan, 1% visible
METAR ENKB 251320Z 11008KT 060V150 9999 SCT065 BKN084 01/M07 Q0992 RMK WIND 745FT 13017KT
Druk 29.30 inches
Zicht 6.2 mijlen
Wolken Licht bewolkt 6500 ft
Merendeels bewolkt 8400 ft
Gevoelstemperatuur 31 °F
Dauwpunt 19 °F
Vochtigheid 54%
Neerslag Niet beschikbaar.
Dikte sneeuw Niet beschikbaar.
7:42 AM 5:31 PM
Afnemende halvemaan, 1% visible
METAR ENKB 251320Z 11008KT 060V150 9999 SCT065 BKN084 01/M07 Q0992 RMK WIND 745FT 13017KT

Get Your Daily Forecast Email!

Thanks for signing up!

Be on the lookout for a verification email in your inbox.

You'll start receiving the daily forecast at 8 AM.

×

10-Day Weather Forecast

×

Almanac

Astronomie

Feb. 25, 2017 Opkomst Ondergang
Werkelijke tijd
Burgerlijke schemering
Nautische schemering
Astronomische schemering
Maan
Golflengte van het zichtbare licht
Daglengte
Tomorrow will be .
, % of the Moon is Illuminated

Extremen vandaag

Country Highs Country Lows

Community

WunderPhotos

Upload Photos

1,962,540 foto’s ge-upload!

WunderBlog® & News

Nearby

Luchtkwaliteit

  Luchtkwaliteit LK-index Verontreinigende stof
Not available.

Dikte sneeuw

Station Depth Geometrische hoogte

Aardbevingen

Stad Distance Mag. Time & Date
Minimum magnitude displayed is 2.5.

Watertemperatuur langs de kust

Plaats Temperatuur

Stations

Nabije weerstations

Locatie station Temp. Gevoelstemperatuur Dauwpunt Vochtigheid Wind Precip. Hoogte Geactualiseerd Type